The Eastern Iowa Airport Cedar Rapids US
ICAO: KCID
IATA: CID
Category: Large
Scheduled Services: Yes

Elevation: 869 ft
TransAlt. 18000 ft.

Airport Communications:
APP/DEP:119.05
ATIS:124.15
CLNC DEL:125.45
CTAF:118.7
GND:121.6
FORT DODGE RDO:122.55
TWR:118.7
UNICOM:122.95

KCID Zoom In..

If you have problems with the map follow the link
https://www.worldairports.se/pages/airport.php?
ICAO=KCID

Runways:

(A) RW 09 length 8600 ft width 150 ft
ILS 109.30 / hdg 89

(B) RW 13 length 6200 ft width 150 ft
---- / hdg 134

(C) RW 27 length 8600 ft width 150 ft
ILS 111.30 / hdg 269

(D) RW 31 length 6200 ft width 150 ft
---- / hdg 314

Location; KCID
Day. 18 / Time. 01.52 Zulu
* Altimeter: 29.95
* Temperature: -04° c. -24.8°f.
* Wind from: 020° Speed 12 kn.
Dewpoint: -06° c.
Visibility: 2 m.
Clouds: Broken 1100 ft.
Clouds: Broken 1800 ft.
Clouds: Overcast 3100 ft.
Conditions: Light Snow.Conditions: Mist.

KCID 180152Z 02012KT 2 1/2SM -SN BR BKN011 BKN018 OVC031 M04/M06 A2995 RMK AO2 SLP155 P0000 T10441061


Wind From 020°
Speed 12 kn.

 
 
jpsmedia.com for Web Design worldairports.se 2019   terms of use